createdAt,value
2023-02-11T00:01:39.896Z,-0.16
2023-02-11T00:06:37.146Z,-0.59
2023-02-11T00:11:33.392Z,-1.02
2023-02-11T00:16:29.744Z,-1.01
2023-02-11T00:21:26.886Z,-0.38
2023-02-11T00:26:25.136Z,-0.14
2023-02-11T00:31:25.561Z,-0.71
2023-02-11T00:36:22.710Z,-1.18
2023-02-11T00:41:18.943Z,-1.07
2023-02-11T00:46:15.241Z,-0.93
2023-02-11T00:51:11.427Z,-0.87
2023-02-11T00:56:07.853Z,-1.09
2023-02-11T01:01:05.029Z,-1.38
2023-02-11T01:06:01.245Z,-0.88
2023-02-11T01:10:58.493Z,-1.13
2023-02-11T01:15:54.813Z,-0.62
2023-02-11T01:20:51.985Z,-0.28
2023-02-11T01:25:48.532Z,-0.77
2023-02-11T01:30:45.606Z,-1.33
2023-02-11T01:35:41.800Z,-1.36
2023-02-11T01:46:00.287Z,-1.29
2023-02-11T01:50:59.479Z,-1.69
2023-02-11T01:55:56.787Z,-1.1
2023-02-11T02:00:54.986Z,-0.95
2023-02-11T02:05:57.252Z,-1.36
2023-02-11T02:10:55.460Z,-1.77
2023-02-11T02:15:53.956Z,-1.2
2023-02-11T02:21:04.946Z,-1.55
2023-02-11T02:26:18.209Z,-1.36
2023-02-11T02:31:28.430Z,-1.86
2023-02-11T02:36:31.617Z,-1.56
2023-02-11T02:41:31.897Z,-1.82
2023-02-11T02:46:34.208Z,-1.66
2023-02-11T02:51:41.360Z,-2.04
2023-02-11T02:56:44.602Z,-1.96
2023-02-11T03:01:49.826Z,-2.24
2023-02-11T03:06:55.080Z,-2.07
2023-02-11T03:11:52.347Z,-2
2023-02-11T03:16:51.589Z,-1.26
2023-02-11T03:21:48.867Z,-1.03
2023-02-11T03:26:50.063Z,-1.23
2023-02-11T03:31:53.544Z,-1.52
2023-02-11T03:36:54.611Z,-1.15
2023-02-11T03:41:54.883Z,-1.55
2023-02-11T03:46:54.113Z,-0.83
2023-02-11T03:51:53.318Z,-1.31
2023-02-11T03:56:52.579Z,-1.99
2023-02-11T04:01:48.885Z,-1.88
2023-02-11T04:06:45.145Z,-1.76
2023-02-11T04:11:41.341Z,-1.92
2023-02-11T04:16:37.748Z,-1.19
2023-02-11T04:21:33.865Z,-2.09
2023-02-11T04:26:30.119Z,-2
2023-02-11T04:31:26.577Z,-1.75
2023-02-11T04:36:22.643Z,-2.41
2023-02-11T04:41:18.940Z,-2.37
2023-02-11T04:46:15.239Z,-2.85
2023-02-11T04:51:11.455Z,-3.11
2023-02-11T04:56:07.706Z,-3.01
2023-02-11T05:01:06.007Z,-3.04
2023-02-11T05:06:02.210Z,-2.62
2023-02-11T05:10:58.550Z,-2.15
2023-02-11T05:15:54.718Z,-1.97
2023-02-11T05:20:51.021Z,-1.81
2023-02-11T05:25:47.264Z,-2.12
2023-02-11T05:30:43.566Z,-1.82
2023-02-11T05:35:39.790Z,-1.57
2023-02-11T05:40:37.042Z,-0.97
2023-02-11T05:45:33.218Z,-1.8
2023-02-11T05:50:29.596Z,-1.52
2023-02-11T05:55:25.803Z,-1.75
2023-02-11T06:00:22.033Z,-2
2023-02-11T08:01:47.919Z,0.97
2023-02-11T08:06:46.248Z,1.64
2023-02-11T08:11:44.351Z,4.04
2023-02-11T08:16:40.639Z,4.17
2023-02-11T08:21:36.844Z,4.39
2023-02-11T08:26:33.102Z,4.11
2023-02-11T08:31:32.496Z,5.01
2023-02-11T08:36:28.619Z,4.51
2023-02-11T08:41:24.854Z,4.11
2023-02-11T08:46:21.161Z,4.16
2023-02-11T08:51:18.414Z,4.82
2023-02-11T08:56:19.643Z,5.4
2023-02-11T09:01:16.958Z,5.54
2023-02-11T09:06:13.168Z,5.85
2023-02-11T09:11:09.408Z,5.37
2023-02-11T09:16:05.675Z,5.72
2023-02-11T09:21:02.008Z,6.12
2023-02-11T09:25:58.224Z,6.17
2023-02-11T09:30:54.998Z,6.09
2023-02-11T09:35:51.744Z,6.23
2023-02-11T09:40:48.086Z,6.22
2023-02-11T09:45:47.249Z,5.79
2023-02-11T09:50:46.513Z,5.59
2023-02-11T09:55:51.709Z,5.43
2023-02-11T10:00:53.965Z,5.97
2023-02-11T10:06:05.205Z,5.72
2023-02-11T10:11:26.056Z,6.76
2023-02-11T10:16:24.614Z,7.04
2023-02-11T10:26:33.111Z,6.99
2023-02-11T10:31:35.670Z,7.22
2023-02-11T10:36:33.632Z,6.82
2023-02-11T10:41:32.906Z,7.36
2023-02-11T10:46:32.253Z,11.2
2023-02-11T10:51:33.368Z,9.06
2023-02-11T10:56:30.632Z,8.72
2023-02-11T11:01:37.900Z,8.56
2023-02-11T11:06:35.162Z,8.48
2023-02-11T11:11:39.356Z,8.96
2023-02-11T11:16:45.560Z,8.66
2023-02-11T11:21:45.869Z,9.06
2023-02-11T11:26:46.097Z,8.55
2023-02-11T11:31:47.396Z,8.33
2023-02-11T11:36:45.566Z,8.64
2023-02-11T11:41:50.848Z,8.89
2023-02-11T11:46:56.133Z,8.09
2023-02-11T11:51:56.334Z,7.75
2023-02-11T11:56:57.548Z,7.67
2023-02-11T12:02:08.846Z,8.15
2023-02-11T12:07:16.017Z,9.11
2023-02-11T12:12:25.281Z,8.07
2023-02-11T12:17:32.501Z,8.67
2023-02-11T12:22:40.754Z,10.02
2023-02-11T12:27:42.933Z,10.54
2023-02-11T12:32:51.229Z,10.28
2023-02-11T12:38:03.371Z,10.73
2023-02-11T12:43:08.661Z,9.76
2023-02-11T12:48:16.869Z,8.75
2023-02-11T12:53:36.042Z,9.07
2023-02-11T12:58:44.532Z,7.98
2023-02-11T13:03:44.532Z,7.78
2023-02-11T13:08:45.796Z,8.39
2023-02-11T13:13:52.097Z,9.3
2023-02-11T13:18:59.278Z,11.06
2023-02-11T13:24:01.517Z,11.13
2023-02-11T13:29:06.770Z,11.81
2023-02-11T13:34:08.977Z,12.49
2023-02-11T13:39:06.250Z,13.2
2023-02-11T13:44:05.502Z,12.53
2023-02-11T13:49:02.769Z,11.15
2023-02-11T13:53:58.005Z,10.47
2023-02-11T13:59:04.276Z,10.28
2023-02-11T14:04:10.496Z,9.8
2023-02-11T14:09:14.736Z,8.96
2023-02-11T14:14:18.982Z,9.75
2023-02-11T14:19:29.222Z,11
2023-02-11T14:24:35.468Z,11.16
2023-02-11T14:29:37.719Z,10.35
2023-02-11T14:34:43.934Z,9.38
2023-02-11T14:39:53.128Z,9.23
2023-02-11T14:44:52.426Z,10.77
2023-02-11T14:49:52.605Z,11.2
2023-02-11T14:54:50.873Z,12.9
2023-02-11T14:59:53.182Z,12.44
2023-02-11T15:05:01.376Z,11.74
2023-02-11T15:10:02.634Z,11.27
2023-02-11T15:14:59.899Z,10.14
2023-02-11T15:20:00.152Z,9.61
2023-02-11T15:24:59.352Z,9.8
2023-02-11T15:29:56.670Z,7.86
2023-02-11T15:34:53.892Z,7.94
2023-02-11T15:39:52.147Z,7.92
2023-02-11T15:45:07.521Z,7.96
2023-02-11T15:50:03.642Z,7.71
2023-02-11T15:55:01.885Z,6.95
2023-02-11T15:59:59.144Z,6.9
2023-02-11T16:04:57.461Z,6.89
2023-02-11T16:09:57.614Z,5.99
2023-02-11T16:14:54.890Z,6.75
2023-02-11T16:19:53.140Z,6.66
2023-02-11T16:24:58.389Z,6.07
2023-02-11T16:29:56.701Z,6.49
2023-02-11T16:35:04.868Z,6.36
2023-02-11T16:40:01.105Z,5.99
2023-02-11T16:44:57.419Z,6.22
2023-02-11T16:49:55.639Z,5.57
2023-02-11T16:54:55.881Z,5.66
2023-02-11T16:59:52.201Z,6.55
2023-02-11T17:04:54.483Z,6.75
2023-02-11T17:09:51.659Z,4.85
2023-02-11T17:14:47.914Z,4.76
2023-02-11T17:19:45.141Z,4.49
2023-02-11T17:24:41.422Z,5.2
2023-02-11T17:29:38.698Z,5.64
2023-02-11T17:34:33.913Z,5.12
2023-02-11T17:39:30.211Z,5.09
2023-02-11T17:44:29.479Z,5.61
2023-02-11T17:49:25.763Z,4.84
2023-02-11T17:54:21.956Z,4.46
2023-02-11T17:59:18.233Z,4.55
2023-02-11T18:04:15.738Z,5.73
2023-02-11T18:09:11.754Z,5.61
2023-02-11T18:14:07.600Z,3.85
2023-02-11T18:19:05.267Z,3.69
2023-02-11T18:24:06.437Z,4.39
2023-02-11T18:29:01.763Z,4.88
2023-02-11T18:33:58.050Z,4.88
2023-02-11T18:38:53.292Z,4.06
2023-02-11T18:43:49.570Z,4.36
2023-02-11T18:48:45.810Z,5.07
2023-02-11T18:53:42.108Z,5.12
2023-02-11T18:58:42.375Z,4.77
2023-02-11T19:03:38.574Z,4.6
2023-02-11T19:08:34.839Z,4
2023-02-11T19:13:31.155Z,4.1
2023-02-11T19:18:31.336Z,4.55
2023-02-11T19:23:27.656Z,4.83
2023-02-11T19:28:23.942Z,4.81
2023-02-11T19:33:20.158Z,4.62
2023-02-11T19:38:16.410Z,4.28
2023-02-11T19:43:12.641Z,4.39
2023-02-11T19:48:12.881Z,3.46
2023-02-11T19:53:09.160Z,3.61
2023-02-11T19:58:05.411Z,3.66
2023-02-11T20:03:01.783Z,3.29
2023-02-11T20:07:57.003Z,3.31
2023-02-11T20:12:53.215Z,3.79
2023-02-11T20:17:49.483Z,3.55
2023-02-11T20:22:45.692Z,3.42
2023-02-11T20:27:42.018Z,3.17
2023-02-11T20:32:38.237Z,3.26
2023-02-11T20:37:34.495Z,3.26
2023-02-11T20:42:30.780Z,3.36
2023-02-11T20:47:27.012Z,3.39
2023-02-11T20:52:23.287Z,3.23
2023-02-11T20:57:18.549Z,3.19
2023-02-11T21:02:19.189Z,3.5
2023-02-11T21:07:15.023Z,3.58
2023-02-11T21:12:10.347Z,3.69
2023-02-11T21:17:06.543Z,4.13
2023-02-11T21:22:02.810Z,4.29
2023-02-11T21:26:59.098Z,4.43
2023-02-11T21:31:56.538Z,4.3
2023-02-11T21:36:52.621Z,4.27
2023-02-11T21:41:48.912Z,4.38
2023-02-11T21:46:46.201Z,4.38
2023-02-11T21:51:44.364Z,4.94
2023-02-11T21:56:41.623Z,4.26
2023-02-11T22:01:44.901Z,4.35
2023-02-11T22:06:42.141Z,3.68
2023-02-11T22:11:39.419Z,3.23
2023-02-11T22:16:36.783Z,3.79
2023-02-11T22:21:32.974Z,2.9
2023-02-11T22:26:29.200Z,2.96
2023-02-11T22:31:27.542Z,2.91
2023-02-11T22:36:32.672Z,2.91
2023-02-11T22:41:28.880Z,3.03
2023-02-11T22:46:25.142Z,3.62
2023-02-11T22:51:22.449Z,3.38
2023-02-11T22:56:18.677Z,3.35
2023-02-11T23:01:14.977Z,3.41
2023-02-11T23:06:12.235Z,2.96
2023-02-11T23:11:10.465Z,3.16
2023-02-11T23:16:11.781Z,3.44
2023-02-11T23:21:11.365Z,3.15
2023-02-11T23:26:13.231Z,3.33
2023-02-11T23:31:13.568Z,3.54
2023-02-11T23:36:09.719Z,3.54
2023-02-11T23:41:05.970Z,3.42
2023-02-11T23:46:02.270Z,3.28
2023-02-11T23:50:58.513Z,3.44
2023-02-11T23:55:56.105Z,3.34
